Storm Events Database

Event Details

Event Hail
Magnitude 1.00 in.
State OKLAHOMA
County/Area MCCLAIN
WFO OUN
Report Source Trained Spotter
NCDC Data Source CSV
Begin Date 2008-11-05 16:32:00.0 CST-6
Begin Location 0N NEWCASTLE
Begin Lat/Lon 35.25/-97.6
End Date 2008-11-05 16:35:00.0 CST-6
Deaths Direct/Indirect 0/0 (fatality details below, when available...)
Injuries Direct/Indirect 0/0
Property Damage 0.00K
Crop Damage 0.00K
Episode Narrative Numerous strong to severe thunderstorms developed ahead of a dry line, west of Interstate 35, and moved northeast into central and northern Oklahoma. The thunderstorms became severe and produced large hail and some damaging winds. Several areas reported hail covering ground a couple of inches deep. Two additional rounds of thunderstorms developed by nightfall, with some areas receiving large hail three to five separate times. Some of the hail reached over golf ball size, and this combined with strong winds caused fairly significant roof, window, and fence damage. The most widespread damage occurred in the northwest Norman area, with an estimated $40 million in damage. The dryline and cold front finally moved into eastern Oklahoma by mid evening, with much cooler temperatures overspreading the region.
Event Narrative Dime to quarter size hail was reported.


     ‚Äč



All events for this episode:

Location County/Zone St. Date Time T.Z. Type Mag Dth Inj PrD CrD
Totals: 0 0 40.065M 0.00K
COGAR CADDO CO. OK 11/05/2008 14:51 CST-6 Thunderstorm Wind 52 kts. EG 0 0 7.00K 0.00K
PIEDMONT CANADIAN CO. OK 11/05/2008 15:30 CST-6 Hail 2.50 in. 0 0 0.00K 0.00K
PIEDMONT CANADIAN CO. OK 11/05/2008 15:30 CST-6 Hail 1.00 in. 0 0 0.00K 0.00K
EDMOND OKLAHOMA CO. OK 11/05/2008 15:35 CST-6 Hail 1.75 in. 0 0 0.00K 0.00K
LAWTON COMANCHE CO. OK 11/05/2008 15:49 CST-6 Hail 0.75 in. 0 0 0.00K 0.00K
PUMPKIN CENTER COMANCHE CO. OK 11/05/2008 15:49 CST-6 Hail 0.88 in. 0 0 0.00K 0.00K
KAW CITY KAY CO. OK 11/05/2008 15:50 CST-6 Thunderstorm Wind 61 kts. EG 0 0 0.00K 0.00K
GUTHRIE LOGAN CO. OK 11/05/2008 16:18 CST-6 Hail 1.75 in. 0 0 0.00K 0.00K
STILLWATER PAYNE CO. OK 11/05/2008 16:19 CST-6 Hail 0.88 in. 0 0 0.00K 0.00K
MERIDIAN LOGAN CO. OK 11/05/2008 16:24 CST-6 Hail 0.75 in. 0 0 0.00K 0.00K
MERIDIAN LOGAN CO. OK 11/05/2008 16:25 CST-6 Hail 2.00 in. 0 0 20.00K 0.00K
CHICKASHA ARPT GRADY CO. OK 11/05/2008 16:27 CST-6 Hail 0.88 in. 0 0 0.00K 0.00K
CHICKASHA ARPT GRADY CO. OK 11/05/2008 16:30 CST-6 Hail 1.00 in. 0 0 0.00K 0.00K
NEWCASTLE MCCLAIN CO. OK 11/05/2008 16:32 CST-6 Hail 1.00 in. 0 0 0.00K 0.00K
PERKINS PAYNE CO. OK 11/05/2008 16:38 CST-6 Hail 1.00 in. 0 0 0.00K 0.00K
PERKINS PAYNE CO. OK 11/05/2008 16:38 CST-6 Hail 1.00 in. 0 0 0.00K 0.00K
NORMAN CLEVELAND CO. OK 11/05/2008 16:39 CST-6 Hail 1.75 in. 0 0 40.000M 0.00K
MOORE CLEVELAND CO. OK 11/05/2008 16:40 CST-6 Hail 0.88 in. 0 0 0.00K 0.00K
NORMAN CLEVELAND CO. OK 11/05/2008 16:41 CST-6 Thunderstorm Wind 60 kts. EG 0 0 0.00K 0.00K
PERKINS PAYNE CO. OK 11/05/2008 16:42 CST-6 Hail 1.75 in. 0 0 0.00K 0.00K
(OUN)NORMAN WESTHEIMER ARPT CLEVELAND CO. OK 11/05/2008 16:43 CST-6 Hail 1.00 in. 0 0 0.00K 0.00K
NORMAN CLEVELAND CO. OK 11/05/2008 16:45 CST-6 Hail 2.00 in. 0 0 0.00K 0.00K
PUMPKIN CENTER COMANCHE CO. OK 11/05/2008 16:55 CST-6 Hail 0.75 in. 0 0 0.00K 0.00K
STANLEY DRAPER LAKE DAM CLEVELAND CO. OK 11/05/2008 16:55 CST-6 Hail 1.75 in. 0 0 0.00K 0.00K
CHOCTAW OKLAHOMA CO. OK 11/05/2008 17:07 CST-6 Hail 0.75 in. 0 0 0.00K 0.00K
MOORE CLEVELAND CO. OK 11/05/2008 17:18 CST-6 Hail 1.00 in. 0 0 0.00K 0.00K
NOBLE CLEVELAND CO. OK 11/05/2008 17:18 CST-6 Hail 1.00 in. 0 0 0.00K 0.00K
MARLOW STEPHENS CO. OK 11/05/2008 17:20 CST-6 Thunderstorm Wind 52 kts. EG 0 0 0.00K 0.00K
MARLOW STEPHENS CO. OK 11/05/2008 17:22 CST-6 Hail 1.75 in. 0 0 0.00K 0.00K
MARLOW STEPHENS CO. OK 11/05/2008 17:22 CST-6 Thunderstorm Wind 52 kts. EG 0 0 0.00K 0.00K
YALE PAYNE CO. OK 11/05/2008 17:26 CST-6 Hail 1.00 in. 0 0 0.00K 0.00K
MEEKER LINCOLN CO. OK 11/05/2008 17:29 CST-6 Hail 0.75 in. 0 0 0.00K 0.00K
COX CITY GRADY CO. OK 11/05/2008 17:40 CST-6 Hail 0.88 in. 0 0 0.00K 0.00K
COX CITY GRADY CO. OK 11/05/2008 17:40 CST-6 Hail 0.88 in. 0 0 0.00K 0.00K
BLANCHARD MCCLAIN CO. OK 11/05/2008 17:47 CST-6 Hail 1.00 in. 0 0 0.00K 0.00K
COX CITY GRADY CO. OK 11/05/2008 17:50 CST-6 Hail 1.75 in. 0 0 0.00K 0.00K
MIDDLEBERG GRADY CO. OK 11/05/2008 17:50 CST-6 Hail 1.25 in. 0 0 0.00K 0.00K
DALE POTTAWATOMIE CO. OK 11/05/2008 18:00 CST-6 Thunderstorm Wind 54 kts. MG 0 0 0.00K 0.00K
LINDSAY GARVIN CO. OK 11/05/2008 18:00 CST-6 Hail 0.75 in. 0 0 0.00K 0.00K
SHAWNEE POTTAWATOMIE CO. OK 11/05/2008 18:00 CST-6 Thunderstorm Wind 56 kts. EG 0 0 10.00K 0.00K
TERRAL JEFFERSON CO. OK 11/05/2008 18:00 CST-6 Hail 0.75 in. 0 0 0.00K 0.00K
LINDSAY GARVIN CO. OK 11/05/2008 18:05 CST-6 Hail 1.00 in. 0 0 0.00K 0.00K
MOORE CLEVELAND CO. OK 11/05/2008 18:06 CST-6 Hail 1.00 in. 0 0 0.00K 0.00K
MOORE CLEVELAND CO. OK 11/05/2008 18:07 CST-6 Hail 1.00 in. 0 0 0.00K 0.00K
DEL CITY OKLAHOMA CO. OK 11/05/2008 18:14 CST-6 Hail 1.50 in. 0 0 0.00K 0.00K
MIDWEST CITY OKLAHOMA CO. OK 11/05/2008 18:16 CST-6 Hail 0.88 in. 0 0 0.00K 0.00K
SPENCER OKLAHOMA CO. OK 11/05/2008 18:20 CST-6 Hail 1.00 in. 0 0 0.00K 0.00K
MIDWEST CITY OKLAHOMA CO. OK 11/05/2008 18:26 CST-6 Hail 1.00 in. 0 0 0.00K 0.00K
GUTHRIE LOGAN CO. OK 11/05/2008 18:29 CST-6 Hail 0.75 in. 0 0 0.00K 0.00K
WAYNE MCCLAIN CO. OK 11/05/2008 18:30 CST-6 Hail 0.88 in. 0 0 0.00K 0.00K
PIEDMONT CANADIAN CO. OK 11/05/2008 18:50 CST-6 Hail 0.88 in. 0 0 0.00K 0.00K
PIEDMONT CANADIAN CO. OK 11/05/2008 18:50 CST-6 Thunderstorm Wind 52 kts. EG 0 0 5.00K 0.00K
NAVINA LOGAN CO. OK 11/05/2008 19:00 CST-6 Hail 1.75 in. 0 0 2.00K 0.00K
STILLWATER PAYNE CO. OK 11/05/2008 19:07 CST-6 Hail 1.00 in. 0 0 0.00K 0.00K
LONE GROVE CARTER CO. OK 11/05/2008 19:10 CST-6 Hail 1.00 in. 0 0 0.00K 0.00K
TECUMSEH POTTAWATOMIE CO. OK 11/05/2008 19:15 CST-6 Hail 0.75 in. 0 0 0.00K 0.00K
LITTLE SEMINOLE CO. OK 11/05/2008 19:40 CST-6 Thunderstorm Wind 52 kts. EG 0 0 0.00K 0.00K
YALE PAYNE CO. OK 11/05/2008 19:45 CST-6 Hail 0.75 in. 0 0 0.00K 0.00K
TABLER GRADY CO. OK 11/05/2008 19:59 CST-6 Hail 0.88 in. 0 0 0.00K 0.00K
TABLER GRADY CO. OK 11/05/2008 20:04 CST-6 Thunderstorm Wind 56 kts. MG 0 0 0.00K 0.00K
PIEDMONT CANADIAN CO. OK 11/05/2008 20:05 CST-6 Hail 1.25 in. 0 0 0.00K 0.00K
MIDDLEBERG GRADY CO. OK 11/05/2008 20:14 CST-6 Thunderstorm Wind 52 kts. EG 0 0 0.00K 0.00K
ANADARKO CADDO CO. OK 11/05/2008 20:15 CST-6 Hail 0.88 in. 0 0 0.00K 0.00K
NORMAN CLEVELAND CO. OK 11/05/2008 20:30 CST-6 Hail 0.75 in. 0 0 0.00K 0.00K
NORMAN CLEVELAND CO. OK 11/05/2008 20:37 CST-6 Hail 0.75 in. 0 0 0.00K 0.00K
NORMAN CLEVELAND CO. OK 11/05/2008 20:43 CST-6 Hail 1.00 in. 0 0 0.00K 0.00K
CHOCTAW OKLAHOMA CO. OK 11/05/2008 20:45 CST-6 Hail 0.75 in. 0 0 0.00K 0.00K
PERKINS PAYNE CO. OK 11/05/2008 20:55 CST-6 Thunderstorm Wind 65 kts. EG 0 0 5.00K 0.00K
PINK POTTAWATOMIE CO. OK 11/05/2008 20:57 CST-6 Hail 1.00 in. 0 0 0.00K 0.00K
SHAWNEE POTTAWATOMIE CO. OK 11/05/2008 21:00 CST-6 Hail 1.75 in. 0 0 0.00K 0.00K
SHAWNEE POTTAWATOMIE CO. OK 11/05/2008 21:00 CST-6 Hail 1.75 in. 0 0 10.00K 0.00K
MCLOUD POTTAWATOMIE CO. OK 11/05/2008 21:06 CST-6 Hail 0.88 in. 0 0 0.00K 0.00K
CHOCTAW OKLAHOMA CO. OK 11/05/2008 21:12 CST-6 Hail 1.00 in. 0 0 0.00K 0.00K
DEL CITY OKLAHOMA CO. OK 11/05/2008 21:23 CST-6 Thunderstorm Wind 70 kts. EG 0 0 0.00K 0.00K
NORMAN CLEVELAND CO. OK 11/05/2008 21:25 CST-6 Hail 0.88 in. 0 0 0.00K 0.00K
NORMAN CLEVELAND CO. OK 11/05/2008 21:25 CST-6 Thunderstorm Wind 50 kts. MG 0 0 0.00K 0.00K
NORMAN CLEVELAND CO. OK 11/05/2008 21:25 CST-6 Thunderstorm Wind 56 kts. EG 0 0 5.00K 0.00K
NORMAN CLEVELAND CO. OK 11/05/2008 21:26 CST-6 Hail 0.88 in. 0 0 0.00K 0.00K
MOORE CLEVELAND CO. OK 11/05/2008 21:28 CST-6 Thunderstorm Wind 61 kts. EG 0 0 1.00K 0.00K
NORMAN CLEVELAND CO. OK 11/05/2008 21:30 CST-6 Hail 0.75 in. 0 0 0.00K 0.00K
CROMWELL SEMINOLE CO. OK 11/05/2008 22:20 CST-6 Hail 0.75 in. 0 0 0.00K 0.00K
Totals: 0 0 40.065M 0.00K